createdAt,value
2023-06-13T00:00:49.028Z,844.00
2023-06-13T00:01:49.070Z,854.00
2023-06-13T00:02:49.170Z,849.00
2023-06-13T00:03:49.339Z,855.00
2023-06-13T00:04:49.372Z,852.00
2023-06-13T00:05:49.316Z,847.00
2023-06-13T00:06:49.406Z,847.00
2023-06-13T00:07:49.465Z,849.00
2023-06-13T00:08:49.498Z,848.00
2023-06-13T00:09:49.565Z,842.00
2023-06-13T00:10:49.711Z,839.00
2023-06-13T00:11:49.677Z,842.00
2023-06-13T00:12:49.814Z,841.00
2023-06-13T00:13:49.809Z,843.00
2023-06-13T00:14:50.854Z,847.00
2023-06-13T00:15:49.926Z,838.00
2023-06-13T00:16:50.046Z,838.00
2023-06-13T00:17:50.113Z,832.00
2023-06-13T00:18:50.207Z,839.00
2023-06-13T00:19:50.184Z,834.00
2023-06-13T00:20:50.256Z,833.00
2023-06-13T00:21:50.312Z,834.00
2023-06-13T00:22:50.373Z,818.00
2023-06-13T00:23:50.487Z,834.00
2023-06-13T00:24:50.549Z,828.00
2023-06-13T00:25:50.563Z,824.00
2023-06-13T00:26:50.608Z,829.00
2023-06-13T00:27:50.657Z,813.00
2023-06-13T00:28:50.704Z,826.00
2023-06-13T00:29:50.767Z,820.00
2023-06-13T00:30:50.869Z,822.00
2023-06-13T00:31:50.883Z,823.00
2023-06-13T00:32:51.001Z,808.00
2023-06-13T00:33:51.004Z,819.00
2023-06-13T00:34:51.072Z,810.00
2023-06-13T00:35:51.138Z,818.00
2023-06-13T00:36:51.184Z,814.00
2023-06-13T00:37:51.246Z,808.00
2023-06-13T00:38:51.325Z,808.00
2023-06-13T00:39:51.377Z,811.00
2023-06-13T00:40:51.433Z,809.00
2023-06-13T00:41:51.491Z,809.00
2023-06-13T00:42:51.603Z,808.00
2023-06-13T00:43:51.612Z,803.00
2023-06-13T00:44:51.639Z,798.00
2023-06-13T00:45:51.684Z,804.00
2023-06-13T00:46:51.757Z,801.00
2023-06-13T00:47:51.816Z,795.00
2023-06-13T00:48:51.938Z,797.00
2023-06-13T00:49:51.916Z,792.00
2023-06-13T00:50:52.055Z,792.00
2023-06-13T00:51:52.043Z,796.00
2023-06-13T00:52:52.104Z,784.00
2023-06-13T00:53:52.160Z,789.00
2023-06-13T00:54:52.206Z,796.00
2023-06-13T00:55:52.256Z,789.00
2023-06-13T00:56:52.314Z,787.00
2023-06-13T00:57:52.361Z,786.00
2023-06-13T00:58:52.432Z,790.00
2023-06-13T00:59:52.495Z,777.00
2023-06-13T01:00:52.523Z,782.00
2023-06-13T01:01:52.627Z,787.00
2023-06-13T01:02:52.692Z,781.00
2023-06-13T01:03:52.644Z,778.00
2023-06-13T01:04:52.820Z,779.00
2023-06-13T01:05:52.741Z,780.00
2023-06-13T01:06:52.820Z,776.00
2023-06-13T01:07:52.856Z,780.00
2023-06-13T01:08:52.907Z,772.00
2023-06-13T01:09:52.979Z,780.00
2023-06-13T01:10:53.027Z,768.00
2023-06-13T01:11:53.081Z,774.00
2023-06-13T01:12:53.135Z,772.00
2023-06-13T01:13:53.203Z,763.00
2023-06-13T01:14:53.244Z,770.00
2023-06-13T01:15:53.286Z,767.00
2023-06-13T01:16:53.366Z,770.00
2023-06-13T01:17:53.459Z,765.00
2023-06-13T01:18:53.431Z,765.00
2023-06-13T01:19:53.484Z,756.00
2023-06-13T01:20:53.555Z,767.00
2023-06-13T01:21:53.620Z,762.00
2023-06-13T01:22:53.807Z,759.00
2023-06-13T01:23:53.814Z,761.00
2023-06-13T01:24:53.815Z,760.00
2023-06-13T01:25:53.993Z,760.00
2023-06-13T01:26:53.947Z,754.00
2023-06-13T01:27:53.982Z,756.00
2023-06-13T01:28:54.026Z,749.00
2023-06-13T01:29:54.079Z,751.00
2023-06-13T01:30:54.129Z,751.00
2023-06-13T01:31:54.131Z,750.00
2023-06-13T01:32:54.274Z,749.00
2023-06-13T01:33:54.174Z,745.00
2023-06-13T01:34:54.215Z,749.00
2023-06-13T01:35:54.256Z,745.00
2023-06-13T01:36:54.316Z,742.00
2023-06-13T01:37:54.357Z,743.00
2023-06-13T01:38:54.394Z,742.00
2023-06-13T01:39:54.412Z,742.00
2023-06-13T01:40:54.429Z,735.00
2023-06-13T01:41:54.462Z,728.00
2023-06-13T01:42:54.461Z,736.00
2023-06-13T01:43:54.460Z,733.00
2023-06-13T01:44:54.473Z,731.00
2023-06-13T01:45:54.479Z,733.00
2023-06-13T01:46:54.469Z,738.00
2023-06-13T01:47:54.593Z,736.00
2023-06-13T01:48:54.560Z,729.00
2023-06-13T01:49:54.670Z,733.00
2023-06-13T01:50:54.612Z,733.00
2023-06-13T01:51:54.629Z,728.00
2023-06-13T01:52:54.653Z,725.00
2023-06-13T01:53:54.669Z,731.00
2023-06-13T01:54:54.698Z,725.00
2023-06-13T01:55:55.331Z,720.00
2023-06-13T01:56:54.710Z,721.00
2023-06-13T01:57:54.722Z,722.00
2023-06-13T01:58:54.749Z,724.00
2023-06-13T01:59:54.815Z,722.00
2023-06-13T02:00:54.839Z,711.00
2023-06-13T02:01:54.916Z,725.00
2023-06-13T02:02:55.039Z,718.00
2023-06-13T02:03:55.013Z,710.00
2023-06-13T02:04:54.872Z,718.00
2023-06-13T02:05:54.876Z,713.00
2023-06-13T02:06:54.882Z,714.00
2023-06-13T02:07:54.908Z,710.00
2023-06-13T02:08:54.913Z,704.00
2023-06-13T02:09:54.928Z,699.00
2023-06-13T02:10:54.945Z,704.00
2023-06-13T02:11:54.936Z,703.00
2023-06-13T02:12:54.959Z,709.00
2023-06-13T02:13:54.980Z,705.00
2023-06-13T02:14:55.050Z,706.00
2023-06-13T02:15:55.025Z,701.00
2023-06-13T02:16:55.224Z,701.00
2023-06-13T02:17:55.119Z,700.00
2023-06-13T02:18:55.116Z,707.00
2023-06-13T02:19:55.110Z,696.00
2023-06-13T02:20:55.832Z,702.00
2023-06-13T02:21:55.108Z,699.00
2023-06-13T02:22:55.130Z,697.00
2023-06-13T02:23:55.178Z,698.00
2023-06-13T02:24:55.165Z,693.00
2023-06-13T02:25:55.182Z,695.00
2023-06-13T02:26:55.192Z,691.00
2023-06-13T02:27:55.206Z,687.00
2023-06-13T02:28:55.214Z,690.00
2023-06-13T02:29:55.332Z,681.00
2023-06-13T02:30:55.273Z,687.00
2023-06-13T02:31:55.349Z,689.00
2023-06-13T02:32:55.345Z,691.00
2023-06-13T02:33:55.273Z,687.00
2023-06-13T02:34:55.300Z,682.00
2023-06-13T02:35:55.301Z,692.00
2023-06-13T02:36:55.312Z,682.00
2023-06-13T02:37:55.317Z,680.00
2023-06-13T02:38:55.339Z,679.00
2023-06-13T02:39:55.350Z,677.00
2023-06-13T02:40:55.343Z,683.00
2023-06-13T02:41:55.358Z,675.00
2023-06-13T02:42:55.372Z,678.00
2023-06-13T02:43:55.382Z,670.00
2023-06-13T02:44:55.406Z,672.00
2023-06-13T02:45:55.417Z,674.00
2023-06-13T02:46:55.445Z,671.00
2023-06-13T02:47:55.537Z,667.00
2023-06-13T02:48:55.577Z,669.00
2023-06-13T02:49:55.531Z,674.00
2023-06-13T02:50:55.509Z,664.00
2023-06-13T02:51:56.334Z,672.00
2023-06-13T02:52:55.575Z,665.00
2023-06-13T02:53:55.560Z,666.00
2023-06-13T02:54:55.566Z,665.00
2023-06-13T02:55:55.598Z,670.00
2023-06-13T02:56:55.594Z,664.00
2023-06-13T02:57:55.610Z,662.00
2023-06-13T02:58:55.622Z,667.00
2023-06-13T02:59:55.723Z,661.00
2023-06-13T03:00:55.674Z,664.00
2023-06-13T03:01:55.670Z,664.00
2023-06-13T03:02:55.761Z,661.00
2023-06-13T03:03:55.751Z,662.00
2023-06-13T03:04:55.714Z,659.00
2023-06-13T03:05:55.714Z,661.00
2023-06-13T03:06:55.733Z,660.00
2023-06-13T03:07:55.746Z,659.00
2023-06-13T03:08:55.752Z,661.00
2023-06-13T03:09:55.821Z,658.00
2023-06-13T03:10:55.749Z,657.00
2023-06-13T03:11:55.776Z,658.00
2023-06-13T03:12:55.776Z,658.00
2023-06-13T03:13:55.790Z,658.00
2023-06-13T03:14:55.805Z,658.00
2023-06-13T03:15:55.794Z,653.00
2023-06-13T03:16:55.824Z,658.00
2023-06-13T03:17:55.948Z,657.00
2023-06-13T03:18:55.832Z,655.00
2023-06-13T03:20:03.927Z,658.00
2023-06-13T03:20:56.876Z,659.00
2023-06-13T03:21:55.851Z,659.00
2023-06-13T03:22:55.941Z,658.00
2023-06-13T03:23:55.866Z,658.00
2023-06-13T03:24:55.833Z,658.00
2023-06-13T03:25:55.863Z,657.00
2023-06-13T03:26:55.862Z,657.00
2023-06-13T03:27:55.831Z,655.00
2023-06-13T03:28:55.829Z,654.00
2023-06-13T03:29:55.822Z,654.00
2023-06-13T03:30:55.911Z,652.00
2023-06-13T03:31:55.858Z,651.00
2023-06-13T03:32:55.972Z,653.00
2023-06-13T03:33:55.929Z,651.00
2023-06-13T03:34:55.947Z,655.00
2023-06-13T03:35:58.931Z,652.00
2023-06-13T03:36:56.045Z,656.00
2023-06-13T03:37:56.051Z,654.00
2023-06-13T03:38:55.987Z,654.00
2023-06-13T03:39:55.985Z,653.00
2023-06-13T03:40:55.973Z,650.00
2023-06-13T03:41:56.863Z,651.00
2023-06-13T03:42:55.970Z,651.00
2023-06-13T03:43:56.044Z,649.00
2023-06-13T03:44:55.978Z,650.00
2023-06-13T03:45:55.995Z,649.00
2023-06-13T03:46:55.971Z,648.00
2023-06-13T03:47:56.080Z,650.00
2023-06-13T03:48:56.203Z,650.00
2023-06-13T03:49:55.961Z,648.00
2023-06-13T03:50:55.955Z,647.00
2023-06-13T03:51:56.040Z,650.00
2023-06-13T03:52:55.958Z,646.00
2023-06-13T03:53:56.861Z,646.00
2023-06-13T03:54:55.949Z,647.00
2023-06-13T03:55:55.939Z,646.00
2023-06-13T03:56:55.927Z,646.00
2023-06-13T03:57:56.860Z,644.00
2023-06-13T03:58:55.931Z,643.00
2023-06-13T03:59:55.930Z,641.00
2023-06-13T04:00:56.373Z,643.00
2023-06-13T04:01:55.935Z,645.00
2023-06-13T04:02:55.950Z,643.00
2023-06-13T04:03:55.978Z,641.00
2023-06-13T04:04:55.907Z,643.00
2023-06-13T04:05:56.000Z,642.00
2023-06-13T04:06:55.903Z,642.00
2023-06-13T04:07:55.933Z,642.00
2023-06-13T04:08:56.874Z,640.00
2023-06-13T04:09:55.912Z,641.00
2023-06-13T04:10:55.911Z,640.00
2023-06-13T04:11:55.908Z,640.00
2023-06-13T04:12:55.926Z,640.00
2023-06-13T04:13:55.922Z,636.00
2023-06-13T04:14:55.931Z,638.00
2023-06-13T04:15:55.928Z,637.00
2023-06-13T04:16:55.968Z,638.00
2023-06-13T04:17:55.986Z,636.00
2023-06-13T04:18:55.993Z,636.00
2023-06-13T04:19:55.933Z,638.00
2023-06-13T04:20:55.940Z,631.00
2023-06-13T04:21:55.934Z,637.00
2023-06-13T04:22:55.939Z,636.00
2023-06-13T04:23:56.088Z,635.00
2023-06-13T04:24:55.945Z,636.00
2023-06-13T04:25:56.886Z,636.00
2023-06-13T04:26:55.947Z,633.00
2023-06-13T04:27:55.953Z,634.00
2023-06-13T04:28:55.947Z,635.00
2023-06-13T04:29:55.962Z,634.00
2023-06-13T04:30:55.974Z,635.00
2023-06-13T04:31:56.048Z,633.00
2023-06-13T04:32:56.140Z,633.00
2023-06-13T04:33:56.109Z,634.00
2023-06-13T04:34:56.127Z,634.00
2023-06-13T04:35:56.159Z,629.00
2023-06-13T04:36:56.190Z,630.00
2023-06-13T04:37:56.229Z,628.00
2023-06-13T04:38:56.244Z,629.00
2023-06-13T04:39:56.270Z,628.00
2023-06-13T04:40:56.316Z,628.00
2023-06-13T04:41:56.494Z,629.00
2023-06-13T04:42:56.378Z,627.00
2023-06-13T04:43:56.483Z,628.00
2023-06-13T04:44:56.464Z,620.00
2023-06-13T04:45:56.589Z,626.00
2023-06-13T04:46:56.533Z,625.00
2023-06-13T04:47:58.361Z,623.00
2023-06-13T04:48:56.682Z,623.00
2023-06-13T04:49:56.643Z,620.00
2023-06-13T04:50:56.669Z,619.00
2023-06-13T04:51:56.727Z,620.00
2023-06-13T04:52:56.760Z,622.00
2023-06-13T04:53:56.786Z,620.00
2023-06-13T04:54:56.825Z,623.00
2023-06-13T04:55:56.855Z,619.00
2023-06-13T04:56:56.880Z,621.00
2023-06-13T04:57:56.896Z,620.00
2023-06-13T04:58:57.143Z,618.00
2023-06-13T04:59:56.961Z,621.00
2023-06-13T05:00:56.995Z,618.00
2023-06-13T05:01:57.002Z,619.00
2023-06-13T05:02:57.296Z,619.00
2023-06-13T05:03:59.062Z,617.00
2023-06-13T05:04:57.131Z,618.00
2023-06-13T05:05:57.094Z,620.00
2023-06-13T05:06:57.104Z,618.00
2023-06-13T05:07:57.219Z,615.00
2023-06-13T05:08:57.101Z,616.00
2023-06-13T05:09:57.107Z,615.00
2023-06-13T05:10:57.101Z,616.00
2023-06-13T05:11:57.122Z,614.00
2023-06-13T05:12:57.106Z,615.00
2023-06-13T05:13:57.122Z,614.00
2023-06-13T05:14:57.121Z,610.00
2023-06-13T05:15:57.132Z,610.00
2023-06-13T05:16:57.113Z,612.00
2023-06-13T05:17:59.581Z,609.00
2023-06-13T05:18:57.115Z,610.00
2023-06-13T05:19:57.124Z,611.00
2023-06-13T05:20:57.110Z,614.00
2023-06-13T05:21:57.137Z,617.00
2023-06-13T05:22:57.116Z,623.00
2023-06-13T05:23:57.160Z,625.00
2023-06-13T05:24:57.124Z,631.00
2023-06-13T05:25:57.125Z,643.00
2023-06-13T05:26:57.102Z,648.00
2023-06-13T05:27:57.169Z,673.00
2023-06-13T05:28:57.092Z,696.00
2023-06-13T05:29:57.123Z,717.00
2023-06-13T05:30:57.125Z,722.00
2023-06-13T05:31:57.099Z,734.00
2023-06-13T05:32:57.132Z,780.00
2023-06-13T05:33:57.076Z,820.00
2023-06-13T05:34:57.079Z,897.00
2023-06-13T05:35:58.524Z,920.00
2023-06-13T05:36:57.906Z,949.00
2023-06-13T05:37:57.904Z,979.00
2023-06-13T05:38:57.045Z,988.00
2023-06-13T05:39:57.038Z,1006.00
2023-06-13T05:40:57.035Z,1044.00
2023-06-13T05:41:57.018Z,1071.00
2023-06-13T05:42:57.014Z,1102.00
2023-06-13T05:43:57.010Z,1120.00
2023-06-13T05:44:56.998Z,1135.00
2023-06-13T05:45:56.981Z,1164.00
2023-06-13T05:46:56.972Z,1186.00
2023-06-13T05:47:57.834Z,1194.00
2023-06-13T05:48:56.978Z,1219.00
2023-06-13T05:49:56.966Z,1295.00
2023-06-13T05:50:56.993Z,1374.00
2023-06-13T05:51:57.000Z,1384.00
2023-06-13T05:52:57.007Z,1402.00
2023-06-13T05:53:57.029Z,1422.00
2023-06-13T05:54:57.042Z,1419.00
2023-06-13T05:55:57.053Z,1426.00
2023-06-13T05:56:57.092Z,1427.00
2023-06-13T05:57:57.080Z,1447.00
2023-06-13T05:58:57.099Z,1441.00
2023-06-13T05:59:57.094Z,1438.00
2023-06-13T06:00:57.903Z,1435.00
2023-06-13T06:01:57.207Z,1434.00
2023-06-13T06:02:57.166Z,1447.00
2023-06-13T06:03:57.170Z,1479.00
2023-06-13T06:04:57.128Z,1478.00
2023-06-13T06:05:57.122Z,1510.00
2023-06-13T06:06:57.127Z,1519.00
2023-06-13T06:07:57.156Z,1529.00
2023-06-13T06:08:57.140Z,1547.00
2023-06-13T06:09:57.147Z,1562.00
2023-06-13T06:10:57.198Z,1580.00
2023-06-13T06:11:57.117Z,1591.00
2023-06-13T06:12:57.106Z,1607.00
2023-06-13T06:13:57.099Z,1637.00
2023-06-13T06:14:57.111Z,1662.00
2023-06-13T06:15:57.849Z,1679.00
2023-06-13T06:16:57.097Z,1681.00
2023-06-13T06:17:57.170Z,1693.00
2023-06-13T06:18:57.319Z,1711.00
2023-06-13T06:19:57.161Z,1729.00
2023-06-13T06:20:57.068Z,1734.00
2023-06-13T06:21:57.056Z,1750.00
2023-06-13T06:22:57.046Z,1769.00
2023-06-13T06:23:57.066Z,1788.00
2023-06-13T06:24:57.047Z,1793.00
2023-06-13T06:25:57.025Z,1792.00
2023-06-13T06:26:57.067Z,1722.00
2023-06-13T06:27:57.013Z,1328.00
2023-06-13T06:28:57.029Z,1041.00
2023-06-13T06:29:57.046Z,831.00
2023-06-13T06:30:57.155Z,671.00
2023-06-13T06:31:57.136Z,601.00
2023-06-13T06:32:57.222Z,545.00
2023-06-13T06:33:57.213Z,494.00
2023-06-13T06:34:57.273Z,489.00
2023-06-13T06:35:57.334Z,484.00
2023-06-13T06:36:57.379Z,491.00
2023-06-13T06:37:57.450Z,492.00
2023-06-13T06:38:57.503Z,500.00
2023-06-13T06:39:57.575Z,500.00
2023-06-13T06:40:57.671Z,500.00
2023-06-13T06:41:57.713Z,500.00
2023-06-13T06:42:57.782Z,498.00
2023-06-13T06:43:57.703Z,500.00
2023-06-13T06:44:57.822Z,500.00
2023-06-13T06:45:57.793Z,500.00
2023-06-13T06:46:58.520Z,499.00
2023-06-13T06:47:57.897Z,500.00
2023-06-13T06:48:57.753Z,500.00
2023-06-13T06:49:57.751Z,500.00
2023-06-13T06:50:57.776Z,500.00
2023-06-13T06:51:57.751Z,500.00
2023-06-13T06:52:57.758Z,501.00
2023-06-13T06:53:57.758Z,502.00
2023-06-13T06:54:57.773Z,500.00
2023-06-13T06:55:57.774Z,500.00
2023-06-13T06:56:57.769Z,500.00
2023-06-13T06:57:57.791Z,500.00
2023-06-13T06:58:57.793Z,500.00
2023-06-13T06:59:57.791Z,500.00
2023-06-13T07:00:57.849Z,500.00
2023-06-13T07:01:58.461Z,500.00
2023-06-13T07:02:57.884Z,500.00
2023-06-13T07:03:57.849Z,500.00
2023-06-13T07:04:57.842Z,499.00
2023-06-13T07:05:57.845Z,502.00
2023-06-13T07:06:57.858Z,500.00
2023-06-13T07:07:57.892Z,500.00
2023-06-13T07:08:57.894Z,501.00
2023-06-13T07:09:57.901Z,504.00
2023-06-13T07:10:57.906Z,504.00
2023-06-13T07:11:57.946Z,501.00
2023-06-13T07:12:57.946Z,500.00
2023-06-13T07:13:57.954Z,501.00
2023-06-13T07:14:57.975Z,500.00
2023-06-13T07:15:58.981Z,501.00
2023-06-13T07:16:57.988Z,502.00
2023-06-13T07:17:58.093Z,500.00
2023-06-13T07:18:58.007Z,500.00
2023-06-13T07:19:58.018Z,500.00
2023-06-13T07:20:58.033Z,504.00
2023-06-13T07:21:58.023Z,528.00
2023-06-13T07:22:58.031Z,554.00
2023-06-13T07:24:07.573Z,594.00
2023-06-13T07:24:59.155Z,596.00
2023-06-13T07:25:58.028Z,606.00
2023-06-13T07:26:58.025Z,632.00
2023-06-13T07:27:58.019Z,707.00
2023-06-13T07:28:58.015Z,886.00
2023-06-13T07:29:58.012Z,986.00
2023-06-13T07:30:57.993Z,1038.00
2023-06-13T07:31:58.029Z,1099.00
2023-06-13T07:33:00.106Z,1186.00
2023-06-13T07:33:58.038Z,1245.00
2023-06-13T07:35:04.742Z,1290.00
2023-06-13T07:35:58.949Z,1294.00
2023-06-13T07:36:57.942Z,1310.00
2023-06-13T07:37:57.933Z,1351.00
2023-06-13T07:39:00.593Z,1424.00
2023-06-13T07:39:57.969Z,1591.00
2023-06-13T07:40:57.899Z,1656.00
2023-06-13T07:41:57.896Z,1705.00
2023-06-13T07:42:57.885Z,1739.00
2023-06-13T07:43:57.906Z,1778.00
2023-06-13T07:44:57.919Z,1843.00
2023-06-13T07:45:57.853Z,1885.00
2023-06-13T07:46:57.851Z,1916.00
2023-06-13T07:47:57.838Z,1979.00
2023-06-13T07:48:57.900Z,2022.00
2023-06-13T07:49:57.817Z,2050.00
2023-06-13T07:50:57.777Z,2104.00
2023-06-13T07:51:57.769Z,2128.00
2023-06-13T07:52:57.776Z,2182.00
2023-06-13T07:53:57.743Z,2225.00
2023-06-13T07:54:57.739Z,2299.00
2023-06-13T07:55:57.711Z,2326.00
2023-06-13T07:56:57.705Z,2365.00
2023-06-13T07:58:00.175Z,2425.00
2023-06-13T07:58:57.659Z,2427.00
2023-06-13T07:59:57.654Z,2440.00
2023-06-13T08:00:57.645Z,2468.00
2023-06-13T08:01:57.649Z,2529.00
2023-06-13T08:02:57.752Z,2603.00
2023-06-13T08:03:57.766Z,2649.00
2023-06-13T08:04:57.658Z,2668.00
2023-06-13T08:05:57.528Z,2702.00
2023-06-13T08:06:57.498Z,2723.00
2023-06-13T08:07:57.469Z,2756.00
2023-06-13T08:08:57.457Z,2785.00
2023-06-13T08:09:57.442Z,2814.00
2023-06-13T08:10:57.403Z,2846.00
2023-06-13T08:11:57.467Z,2893.00
2023-06-13T08:12:57.373Z,2896.00
2023-06-13T08:13:57.385Z,2910.00
2023-06-13T08:14:57.330Z,2927.00
2023-06-13T08:15:57.467Z,2900.00
2023-06-13T08:16:57.282Z,2896.00
2023-06-13T08:17:57.283Z,2821.00
2023-06-13T08:18:57.991Z,2745.00
2023-06-13T08:19:57.486Z,2645.00
2023-06-13T08:20:57.202Z,2613.00
2023-06-13T08:21:57.188Z,2580.00
2023-06-13T08:22:57.159Z,2547.00
2023-06-13T08:23:57.175Z,2512.00
2023-06-13T08:24:57.470Z,2481.00
2023-06-13T08:25:57.250Z,2476.00
2023-06-13T08:26:57.273Z,2451.00
2023-06-13T08:27:57.058Z,2399.00
2023-06-13T08:28:57.042Z,2341.00
2023-06-13T08:29:57.524Z,2345.00
2023-06-13T08:31:10.427Z,2351.00
2023-06-13T08:31:58.079Z,2353.00
2023-06-13T08:32:57.028Z,2365.00
2023-06-13T08:34:08.842Z,2392.00
2023-06-13T08:34:57.935Z,2357.00
2023-06-13T08:35:56.916Z,2382.00
2023-06-13T08:36:56.938Z,2433.00
2023-06-13T08:37:56.866Z,2517.00
2023-06-13T08:38:56.875Z,2651.00
2023-06-13T08:39:56.822Z,2688.00
2023-06-13T08:40:56.843Z,2709.00
2023-06-13T08:41:56.773Z,2746.00
2023-06-13T08:42:56.769Z,2776.00
2023-06-13T08:43:56.812Z,2804.00
2023-06-13T08:44:56.853Z,2837.00
2023-06-13T08:45:56.864Z,2868.00
2023-06-13T08:46:56.964Z,2885.00
2023-06-13T08:47:57.084Z,2931.00
2023-06-13T08:48:56.976Z,2950.00
2023-06-13T08:49:57.014Z,2981.00
2023-06-13T08:50:57.047Z,3018.00
2023-06-13T08:51:57.160Z,3070.00
2023-06-13T08:52:57.138Z,3126.00
2023-06-13T08:53:57.285Z,3139.00
2023-06-13T08:55:34.495Z,3158.00
2023-06-13T08:56:04.487Z,3160.00
2023-06-13T08:56:58.332Z,3162.00
2023-06-13T08:57:57.118Z,3179.00
2023-06-13T08:58:57.979Z,3212.00
2023-06-13T08:59:57.054Z,3269.00
2023-06-13T09:00:57.078Z,3354.00
2023-06-13T09:01:57.002Z,3401.00
2023-06-13T09:02:57.147Z,3417.00
2023-06-13T09:03:57.001Z,3464.00
2023-06-13T09:04:59.172Z,3483.00
2023-06-13T09:05:56.892Z,3485.00
2023-06-13T09:06:56.869Z,3496.00
2023-06-13T09:08:05.123Z,3520.00
2023-06-13T09:08:57.822Z,3489.00
2023-06-13T09:09:56.823Z,3510.00
2023-06-13T09:10:56.896Z,3553.00
2023-06-13T09:11:56.835Z,3621.00
2023-06-13T09:12:56.713Z,3728.00
2023-06-13T09:13:56.703Z,3753.00
2023-06-13T09:14:56.652Z,3770.00
2023-06-13T09:15:56.626Z,3794.00
2023-06-13T09:16:56.676Z,3816.00
2023-06-13T09:18:56.605Z,3860.00
2023-06-13T09:19:56.576Z,3896.00
2023-06-13T09:20:56.577Z,3915.00
2023-06-13T09:21:56.584Z,3918.00
2023-06-13T09:22:56.576Z,3831.00
2023-06-13T09:23:56.671Z,3725.00
2023-06-13T09:24:56.586Z,3720.00
2023-06-13T09:25:56.639Z,3707.00
2023-06-13T09:26:56.587Z,3706.00
2023-06-13T09:27:58.047Z,3730.00
2023-06-13T09:28:56.607Z,3735.00
2023-06-13T09:29:56.619Z,3753.00
2023-06-13T09:30:56.681Z,3777.00
2023-06-13T09:31:56.645Z,3801.00
2023-06-13T09:32:56.701Z,3835.00
2023-06-13T09:33:56.682Z,3865.00
2023-06-13T09:34:56.691Z,3870.00
2023-06-13T09:35:58.224Z,3909.00
2023-06-13T09:36:56.712Z,3932.00
2023-06-13T09:37:56.648Z,3943.00
2023-06-13T09:38:56.629Z,3958.00
2023-06-13T09:40:16.439Z,3973.00
2023-06-13T09:40:57.577Z,3976.00
2023-06-13T09:41:56.542Z,3981.00
2023-06-13T09:43:05.042Z,3989.00
2023-06-13T09:43:57.472Z,3977.00
2023-06-13T09:44:58.982Z,4001.00
2023-06-13T09:45:56.709Z,4042.00
2023-06-13T09:46:56.856Z,4116.00
2023-06-13T09:47:56.682Z,4209.00
2023-06-13T09:48:56.664Z,4216.00
2023-06-13T09:49:57.207Z,4229.00
2023-06-13T09:50:56.667Z,4256.00
2023-06-13T09:51:56.669Z,4267.00
2023-06-13T09:52:56.689Z,4276.00
2023-06-13T09:53:56.681Z,4315.00
2023-06-13T09:54:56.699Z,4303.00
2023-06-13T09:55:56.697Z,4318.00
2023-06-13T09:56:56.700Z,4345.00
2023-06-13T09:58:18.288Z,4636.00
2023-06-13T09:58:57.684Z,4638.00
2023-06-13T09:59:56.659Z,4637.00
2023-06-13T10:00:56.634Z,4638.00
2023-06-13T10:01:56.612Z,4639.00
2023-06-13T10:02:59.713Z,4618.00
2023-06-13T10:03:57.541Z,4637.00
2023-06-13T10:04:56.572Z,4637.00
2023-06-13T10:05:56.476Z,4638.00
2023-06-13T10:06:56.505Z,4621.00
2023-06-13T10:07:56.402Z,4618.00
2023-06-13T10:08:56.396Z,4630.00
2023-06-13T10:09:56.342Z,4654.00
2023-06-13T10:10:56.320Z,4642.00
2023-06-13T10:11:56.331Z,4636.00
2023-06-13T10:12:57.000Z,4620.00
2023-06-13T10:13:56.225Z,4613.00
2023-06-13T10:14:56.163Z,4600.00
2023-06-13T10:15:56.187Z,4595.00
2023-06-13T10:17:07.701Z,4584.00
2023-06-13T10:17:57.141Z,4585.00
2023-06-13T10:18:56.071Z,4577.00
2023-06-13T10:19:56.007Z,4572.00
2023-06-13T10:20:55.964Z,4550.00
2023-06-13T10:21:55.989Z,4556.00
2023-06-13T10:22:55.905Z,4541.00
2023-06-13T10:23:55.935Z,4533.00
2023-06-13T10:24:55.860Z,4535.00
2023-06-13T10:25:56.736Z,4502.00
2023-06-13T10:26:55.781Z,4505.00
2023-06-13T10:27:56.548Z,4486.00
2023-06-13T10:28:55.766Z,4485.00
2023-06-13T10:29:55.675Z,4477.00
2023-06-13T10:30:55.700Z,4467.00
2023-06-13T10:31:55.747Z,4450.00
2023-06-13T10:32:55.741Z,4449.00
2023-06-13T10:33:55.721Z,4432.00
2023-06-13T10:34:55.814Z,4423.00
2023-06-13T10:35:55.742Z,4418.00
2023-06-13T10:36:58.347Z,4418.00
2023-06-13T10:37:56.726Z,4419.00
2023-06-13T10:38:56.527Z,4410.00
2023-06-13T10:39:55.671Z,4388.00
2023-06-13T10:40:55.637Z,4390.00
2023-06-13T10:41:55.620Z,4381.00
2023-06-13T10:42:55.607Z,4368.00
2023-06-13T10:43:55.565Z,4365.00
2023-06-13T10:44:55.534Z,4342.00
2023-06-13T10:45:55.541Z,4342.00
2023-06-13T10:46:55.484Z,4337.00
2023-06-13T10:47:55.473Z,4320.00
2023-06-13T10:48:55.472Z,4316.00
2023-06-13T10:49:55.495Z,4312.00
2023-06-13T10:50:55.521Z,4293.00
2023-06-13T10:51:55.551Z,4284.00
2023-06-13T10:52:55.564Z,4271.00
2023-06-13T10:53:55.603Z,4271.00
2023-06-13T10:54:55.632Z,4256.00
2023-06-13T10:55:55.662Z,4255.00
2023-06-13T10:56:55.669Z,4235.00
2023-06-13T10:57:55.720Z,4231.00
2023-06-13T10:58:55.732Z,4208.00
2023-06-13T10:59:55.769Z,4206.00
2023-06-13T11:00:55.819Z,4195.00
2023-06-13T11:01:55.831Z,4182.00
2023-06-13T11:02:55.989Z,4169.00
2023-06-13T11:03:55.930Z,4163.00
2023-06-13T11:04:55.952Z,4152.00
2023-06-13T11:05:56.042Z,4136.00
2023-06-13T11:06:56.006Z,4130.00
2023-06-13T11:07:56.037Z,4115.00
2023-06-13T11:08:56.087Z,4113.00
2023-06-13T11:09:56.181Z,4098.00
2023-06-13T11:10:56.148Z,4091.00
2023-06-13T11:11:56.192Z,4083.00
2023-06-13T11:12:56.211Z,4086.00
2023-06-13T11:13:56.279Z,4066.00
2023-06-13T11:15:56.354Z,4069.00
2023-06-13T11:16:56.459Z,4049.00
2023-06-13T11:17:56.486Z,4034.00
2023-06-13T11:18:56.481Z,4032.00
2023-06-13T11:19:56.489Z,4032.00
2023-06-13T11:20:56.512Z,4022.00
2023-06-13T11:21:56.606Z,4009.00
2023-06-13T11:22:56.580Z,3996.00
2023-06-13T11:23:56.699Z,3986.00
2023-06-13T11:24:56.669Z,3980.00
2023-06-13T11:25:56.771Z,3975.00
2023-06-13T11:26:56.743Z,3973.00
2023-06-13T11:27:56.822Z,3971.00
2023-06-13T11:28:56.822Z,3963.00
2023-06-13T11:29:56.872Z,3946.00
2023-06-13T11:30:56.902Z,3943.00
2023-06-13T11:31:57.004Z,3939.00
2023-06-13T11:32:57.025Z,3922.00
2023-06-13T11:33:57.023Z,3921.00
2023-06-13T11:34:57.044Z,3919.00
2023-06-13T11:35:57.082Z,3923.00
2023-06-13T11:36:57.112Z,3892.00
2023-06-13T11:37:58.031Z,3893.00
2023-06-13T11:38:57.213Z,3889.00
2023-06-13T11:40:17.829Z,3881.00
2023-06-13T11:40:58.216Z,3882.00
2023-06-13T11:41:57.178Z,3883.00
2023-06-13T11:42:57.137Z,3881.00
2023-06-13T11:43:57.171Z,3869.00
2023-06-13T11:44:57.082Z,3858.00
2023-06-13T11:45:57.058Z,3861.00
2023-06-13T11:46:57.062Z,3853.00
2023-06-13T11:47:57.106Z,3848.00
2023-06-13T11:48:57.218Z,3837.00
2023-06-13T11:49:57.463Z,3822.00
2023-06-13T11:50:57.012Z,3817.00
2023-06-13T11:51:57.052Z,3813.00
2023-06-13T11:52:57.193Z,3805.00
2023-06-13T11:53:57.133Z,3799.00
2023-06-13T11:54:57.176Z,3792.00
2023-06-13T11:55:57.282Z,3791.00
2023-06-13T11:56:57.240Z,3784.00
2023-06-13T11:57:57.276Z,3774.00
2023-06-13T11:58:57.329Z,3770.00
2023-06-13T11:59:57.370Z,3763.00
2023-06-13T12:00:57.394Z,3760.00
2023-06-13T12:01:57.478Z,3753.00
2023-06-13T12:02:57.776Z,3745.00
2023-06-13T12:03:57.686Z,3733.00
2023-06-13T12:04:57.684Z,3739.00
2023-06-13T12:05:57.586Z,3719.00
2023-06-13T12:06:57.619Z,3719.00
2023-06-13T12:07:57.728Z,3707.00
2023-06-13T12:08:57.714Z,3720.00
2023-06-13T12:09:57.732Z,3709.00
2023-06-13T12:10:58.042Z,3711.00
2023-06-13T12:11:57.813Z,3717.00
2023-06-13T12:12:57.833Z,3707.00
2023-06-13T12:13:57.870Z,3699.00
2023-06-13T12:14:57.904Z,3697.00
2023-06-13T12:15:57.939Z,3685.00
2023-06-13T12:16:58.001Z,3700.00
2023-06-13T12:17:58.578Z,3675.00
2023-06-13T12:18:58.035Z,3673.00
2023-06-13T12:19:58.123Z,3667.00